Time;durP1;ratioP1;P1;durP2;ratioP2;P2;SDS_P1;SDS_P2;PMS_P1;PMS_P2;Temp;Humidity;BMP_temperature;BMP_pressure;BME280_temperature;BME280_humidity;BME280_pressure;Samples;Min_cycle;Max_cycle;Signal;HPM_P1;HPM_P2
2022/04/29 00:02:17;;;;;;;10.13;3.35;;;8.00;99.90;;;;;;4954500;29;20044;-50
2022/04/29 00:04:43;;;;;;;7.90;3.40;;;8.00;99.90;;;;;;4954558;29;20105;-52
2022/04/29 00:07:10;;;;;;;12.02;3.83;;;7.90;99.90;;;;;;4954527;29;20057;-53
2022/04/29 00:09:36;;;;;;;9.73;3.97;;;8.00;99.90;;;;;;4953816;29;20036;-49
2022/04/29 00:12:04;;;;;;;9.55;4.57;;;7.90;99.90;;;;;;4954161;29;20043;-53
2022/04/29 00:14:30;;;;;;;6.55;3.10;;;7.90;99.90;;;;;;4936945;29;20043;-51
2022/04/29 00:16:57;;;;;;;12.00;4.15;;;7.90;99.90;;;;;;4954218;29;20075;-51
2022/04/29 00:19:22;;;;;;;10.13;3.47;;;7.80;99.90;;;;;;4954288;29;20035;-53
2022/04/29 00:21:48;;;;;;;9.70;3.42;;;7.80;99.90;;;;;;4954144;29;20042;-53
2022/04/29 00:24:14;;;;;;;9.52;3.30;;;7.70;99.90;;;;;;4937249;29;20069;-51
2022/04/29 00:26:40;;;;;;;12.88;3.75;;;7.70;99.90;;;;;;4954407;29;20043;-53
2022/04/29 00:29:07;;;;;;;11.35;3.45;;;7.70;99.90;;;;;;4937038;29;20043;-51
2022/04/29 00:31:35;;;;;;;9.65;3.30;;;7.60;99.90;;;;;;4954041;29;20126;-51
2022/04/29 00:34:01;;;;;;;10.82;3.67;;;7.60;99.90;;;;;;4952616;29;20043;-52
2022/04/29 00:36:26;;;;;;;9.93;3.78;;;7.60;99.90;;;;;;4951727;29;20098;-52
2022/04/29 00:38:53;;;;;;;9.45;3.22;;;7.60;99.90;;;;;;4953775;29;20416;-52
2022/04/29 00:41:20;;;;;;;10.00;3.78;;;7.50;99.90;;;;;;4953851;29;20061;-53
2022/04/29 00:43:46;;;;;;;7.00;3.45;;;7.50;99.90;;;;;;4954316;29;20039;-52
2022/04/29 00:46:12;;;;;;;6.65;3.17;;;7.50;99.90;;;;;;4953916;29;20109;-51
2022/04/29 00:48:38;;;;;;;6.45;3.17;;;7.50;99.90;;;;;;4936439;28;20083;-51
2022/04/29 00:51:04;;;;;;;9.38;3.60;;;7.40;99.90;;;;;;4952967;29;20122;-51
2022/04/29 00:53:30;;;;;;;6.05;3.40;;;7.40;99.90;;;;;;4953628;29;20074;-52
2022/04/29 00:55:57;;;;;;;7.22;3.35;;;7.40;99.90;;;;;;4953861;29;20051;-54
2022/04/29 00:58:37;;;;;;;7.80;3.47;;;7.30;99.90;;;;;;4953480;29;20047;-51
2022/04/29 01:01:04;;;;;;;6.03;3.08;;;7.30;99.90;;;;;;4953166;29;20042;-51
2022/04/29 01:03:30;;;;;;;6.13;3.33;;;7.20;99.90;;;;;;4953684;29;20090;-53
2022/04/29 01:05:55;;;;;;;6.05;2.75;;;7.20;99.90;;;;;;4940899;28;20512;-53
2022/04/29 01:08:21;;;;;;;7.65;3.25;;;7.20;99.90;;;;;;4953517;29;20056;-50
2022/04/29 01:10:47;;;;;;;8.85;3.17;;;7.20;99.90;;;;;;4940419;29;20123;-50
2022/04/29 01:13:13;;;;;;;8.73;3.53;;;7.10;99.90;;;;;;4936066;29;20047;-53
2022/04/29 01:15:39;;;;;;;6.88;3.22;;;7.10;99.90;;;;;;4953193;29;20480;-50
2022/04/29 01:18:09;;;;;;;6.03;2.72;;;7.10;99.90;;;;;;4953230;29;20043;-51
2022/04/29 01:20:35;;;;;;;11.32;4.13;;;7.10;99.90;;;;;;4970253;28;20042;-52
2022/04/29 01:23:06;;;;;;;9.77;3.35;;;7.10;99.90;;;;;;4962054;28;20051;-50
2022/04/29 01:25:32;;;;;;;10.98;3.58;;;7.10;99.90;;;;;;4972120;28;20125;-51
2022/04/29 01:27:57;;;;;;;10.18;3.13;;;7.10;99.90;;;;;;4972616;28;20122;-51
2022/04/29 01:30:23;;;;;;;7.90;3.17;;;7.00;99.90;;;;;;4971894;28;20055;-53
2022/04/29 01:32:49;;;;;;;6.18;3.33;;;7.00;99.90;;;;;;4972539;28;20105;-53
2022/04/29 01:35:15;;;;;;;11.00;3.65;;;6.90;99.90;;;;;;4954748;28;20043;-49
2022/04/29 01:37:44;;;;;;;6.93;2.95;;;6.90;99.90;;;;;;4972036;28;20038;-50
2022/04/29 01:40:11;;;;;;;7.72;3.65;;;6.90;99.90;;;;;;4954404;28;20496;-51
2022/04/29 01:42:37;;;;;;;7.15;3.95;;;6.90;99.90;;;;;;4972230;28;20117;-49
2022/04/29 01:45:04;;;;;;;9.20;3.83;;;6.80;99.90;;;;;;4971958;28;20035;-53
2022/04/29 01:47:29;;;;;;;13.90;4.30;;;6.80;99.90;;;;;;4954973;28;20070;-52
2022/04/29 01:49:55;;;;;;;9.80;3.38;;;6.80;99.90;;;;;;4954663;28;20097;-52
2022/04/29 01:52:21;;;;;;;7.93;3.53;;;6.80;99.90;;;;;;4972337;28;20035;-54
2022/04/29 01:54:46;;;;;;;8.50;4.40;;;6.80;99.90;;;;;;4971869;28;20074;-48
2022/04/29 01:57:12;;;;;;;7.20;3.17;;;6.70;99.90;;;;;;4972514;28;20031;-51
2022/04/29 01:59:38;;;;;;;12.25;3.47;;;6.70;99.90;;;;;;4938428;28;20046;-53
2022/04/29 02:02:06;;;;;;;9.07;4.53;;;6.70;99.90;;;;;;4971706;28;20035;-53
2022/04/29 02:04:33;;;;;;;8.43;4.03;;;6.70;99.90;;;;;;4971880;28;20065;-53
2022/04/29 02:06:58;;;;;;;7.05;3.95;;;6.70;99.90;;;;;;4971970;28;20045;-52
2022/04/29 02:09:24;;;;;;;9.15;3.20;;;6.70;99.90;;;;;;4971690;28;20117;-53
2022/04/29 02:12:05;;;;;;;15.23;4.70;;;6.70;99.90;;;;;;4971964;28;20122;-52
2022/04/29 02:14:42;;;;;;;10.10;4.78;;;6.70;99.90;;;;;;4954113;28;20042;-53
2022/04/29 02:17:10;;;;;;;9.30;3.70;;;6.70;99.90;;;;;;4971682;28;20050;-53
2022/04/29 02:19:37;;;;;;;7.47;4.03;;;6.70;99.90;;;;;;4971749;28;20038;-53
2022/04/29 02:22:05;;;;;;;8.65;3.95;;;6.70;99.90;;;;;;4971324;28;20043;-53
2022/04/29 02:24:31;;;;;;;12.70;4.30;;;6.70;99.90;;;;;;4954280;28;20074;-53
2022/04/29 02:26:59;;;;;;;8.45;3.90;;;6.70;99.90;;;;;;4954336;28;20109;-48
2022/04/29 02:29:27;;;;;;;10.32;4.32;;;6.70;99.90;;;;;;4971001;28;20373;-53
2022/04/29 02:31:54;;;;;;;6.70;3.90;;;6.70;99.90;;;;;;4971673;28;20051;-52
2022/04/29 02:34:19;;;;;;;7.13;4.13;;;6.70;99.90;;;;;;4971554;28;20448;-52
2022/04/29 02:36:46;;;;;;;7.72;3.40;;;6.70;99.90;;;;;;4954128;28;20132;-53
2022/04/29 02:39:13;;;;;;;9.45;3.85;;;6.70;99.90;;;;;;4971198;28;20086;-52
2022/04/29 02:41:38;;;;;;;9.48;5.13;;;6.70;99.90;;;;;;4971539;28;20177;-49
2022/04/29 02:44:04;;;;;;;10.23;4.70;;;6.70;99.90;;;;;;4971143;28;20551;-51
2022/04/29 02:46:30;;;;;;;8.70;4.60;;;6.70;99.90;;;;;;4953919;28;20461;-52
2022/04/29 02:48:56;;;;;;;9.48;3.80;;;6.70;99.90;;;;;;4971511;28;20039;-53
2022/04/29 02:51:22;;;;;;;12.25;4.05;;;6.70;99.90;;;;;;4970603;28;20050;-53
2022/04/29 02:53:47;;;;;;;9.75;4.00;;;6.70;99.90;;;;;;4971426;28;20050;-50
2022/04/29 02:56:13;;;;;;;7.80;3.70;;;6.60;99.90;;;;;;4971116;28;20064;-53
2022/04/29 02:58:38;;;;;;;8.10;3.58;;;6.60;99.90;;;;;;4971329;28;20066;-49
2022/04/29 03:01:04;;;;;;;10.07;3.33;;;6.60;99.90;;;;;;4970853;28;20065;-53
2022/04/29 03:03:30;;;;;;;10.90;3.28;;;6.60;99.90;;;;;;4971463;28;20054;-53
2022/04/29 03:05:56;;;;;;;9.93;4.68;;;6.60;99.90;;;;;;4971050;28;20038;-50
2022/04/29 03:08:22;;;;;;;8.88;4.47;;;6.60;99.90;;;;;;4971150;28;20121;-51
2022/04/29 03:10:47;;;;;;;7.13;3.42;;;6.60;99.90;;;;;;4970842;28;20039;-50
2022/04/29 03:13:13;;;;;;;11.05;3.42;;;6.60;99.90;;;;;;4972948;28;20475;-49
2022/04/29 03:15:39;;;;;;;7.50;4.10;;;6.60;99.90;;;;;;4974649;28;20524;-53
2022/04/29 03:18:23;;;;;;;8.32;3.03;;;6.60;99.90;;;;;;4974730;28;20121;-53
2022/04/29 03:20:58;;;;;;;7.00;3.38;;;6.60;99.90;;;;;;4974375;28;20034;-52
2022/04/29 03:23:24;;;;;;;9.55;3.90;;;6.60;99.90;;;;;;4974907;28;20098;-50
2022/04/29 03:25:50;;;;;;;12.98;3.80;;;6.60;99.90;;;;;;4974258;28;20039;-54
2022/04/29 03:28:16;;;;;;;8.18;3.47;;;6.60;99.90;;;;;;4974860;28;20089;-53
2022/04/29 03:30:42;;;;;;;8.88;3.53;;;6.60;99.90;;;;;;4974177;28;20158;-53
2022/04/29 03:33:09;;;;;;;7.72;3.53;;;6.60;99.90;;;;;;4974623;28;20142;-50
2022/04/29 03:35:43;;;;;;;10.82;4.05;;;6.60;99.90;;;;;;4974624;28;20061;-53
2022/04/29 03:38:10;;;;;;;9.27;3.92;;;6.60;99.90;;;;;;4974846;28;20117;-53
2022/04/29 03:40:35;;;;;;;6.22;3.38;;;6.50;99.90;;;;;;4974082;28;20488;-53
2022/04/29 03:43:02;;;;;;;9.80;4.03;;;6.60;99.90;;;;;;4974653;28;20050;-54
2022/04/29 03:45:28;;;;;;;8.23;4.30;;;6.50;99.90;;;;;;4974298;28;20129;-48
2022/04/29 03:47:54;;;;;;;12.57;4.90;;;6.50;99.90;;;;;;4974438;28;20126;-53
2022/04/29 03:50:23;;;;;;;8.60;4.75;;;6.50;99.90;;;;;;4974018;28;20515;-53
2022/04/29 03:53:07;;;;;;;6.75;4.20;;;6.50;99.90;;;;;;4974297;28;20566;-52
2022/04/29 03:55:35;;;;;;;7.93;4.00;;;6.50;99.90;;;;;;4974428;28;20081;-49
2022/04/29 03:58:02;;;;;;;8.18;3.80;;;6.50;99.90;;;;;;4974007;28;20094;-52
2022/04/29 04:00:33;;;;;;;10.02;4.07;;;6.40;99.90;;;;;;4974096;28;20073;-51
2022/04/29 04:03:00;;;;;;;12.80;4.15;;;6.40;99.90;;;;;;4956435;28;20046;-51
2022/04/29 04:05:26;;;;;;;9.73;4.47;;;6.40;99.90;;;;;;4973756;28;20045;-53
2022/04/29 04:07:52;;;;;;;9.65;3.75;;;6.40;99.90;;;;;;4973976;28;20113;-49
2022/04/29 04:10:18;;;;;;;11.90;4.03;;;6.40;99.90;;;;;;4973885;28;20054;-51
2022/04/29 04:12:49;;;;;;;8.73;3.83;;;6.40;99.90;;;;;;4956681;28;20050;-53
2022/04/29 04:15:16;;;;;;;13.20;4.28;;;6.40;99.90;;;;;;4973564;28;20519;-52
2022/04/29 04:17:43;;;;;;;9.35;4.72;;;6.40;99.90;;;;;;4973670;28;20043;-54
2022/04/29 04:20:11;;;;;;;10.00;4.28;;;6.50;99.90;;;;;;4973505;28;20039;-53
2022/04/29 04:22:37;;;;;;;13.00;4.78;;;6.50;99.90;;;;;;4973748;28;20727;-50
2022/04/29 04:25:05;;;;;;;9.32;4.45;;;6.50;99.90;;;;;;4973493;28;20047;-47
2022/04/29 04:27:31;;;;;;;9.38;3.75;;;6.60;99.90;;;;;;4973596;28;20152;-49
2022/04/29 04:29:58;;;;;;;12.60;4.25;;;6.60;99.90;;;;;;4955776;28;20058;-52
2022/04/29 04:32:24;;;;;;;7.85;3.40;;;6.60;99.90;;;;;;4973191;28;20156;-54
2022/04/29 04:34:50;;;;;;;11.95;5.22;;;6.60;99.90;;;;;;4973421;28;20035;-53
2022/04/29 04:37:23;;;;;;;8.85;3.58;;;6.60;99.90;;;;;;4939926;28;20420;-53
2022/04/29 04:39:50;;;;;;;9.18;4.18;;;6.60;99.90;;;;;;4973247;28;20039;-51
2022/04/29 04:42:17;;;;;;;10.45;4.13;;;6.60;99.90;;;;;;4956394;28;20054;-52
2022/04/29 04:44:45;;;;;;;9.25;4.45;;;6.60;99.90;;;;;;4973027;28;20038;-50
2022/04/29 04:47:11;;;;;;;9.35;4.32;;;6.60;99.90;;;;;;4973133;28;20404;-53
2022/04/29 04:49:37;;;;;;;8.13;4.10;;;6.60;99.90;;;;;;4972854;28;20046;-52
2022/04/29 04:52:03;;;;;;;8.18;3.75;;;6.60;99.90;;;;;;4973224;28;20161;-51
2022/04/29 04:54:28;;;;;;;5.38;3.45;;;6.70;99.90;;;;;;4973136;28;20052;-49
2022/04/29 04:56:54;;;;;;;9.15;4.25;;;6.70;99.90;;;;;;4972970;28;20046;-53
2022/04/29 04:59:20;;;;;;;11.07;4.47;;;6.70;99.90;;;;;;4972899;28;20086;-53
2022/04/29 05:01:45;;;;;;;10.90;3.88;;;6.80;99.90;;;;;;4972653;28;20476;-53
2022/04/29 05:04:11;;;;;;;7.13;3.65;;;6.80;99.90;;;;;;4972996;28;20051;-53
2022/04/29 05:06:37;;;;;;;9.68;3.70;;;6.90;99.90;;;;;;4972760;28;20039;-53
2022/04/29 05:09:06;;;;;;;8.13;4.03;;;6.90;99.90;;;;;;4972571;28;20129;-49
2022/04/29 05:11:32;;;;;;;8.68;4.60;;;6.90;99.90;;;;;;4972632;28;20034;-54
2022/04/29 05:13:58;;;;;;;9.10;4.03;;;6.90;99.90;;;;;;4972724;28;20360;-50
2022/04/29 05:16:24;;;;;;;7.20;3.70;;;7.00;99.90;;;;;;4972666;28;20034;-50
2022/04/29 05:18:50;;;;;;;9.32;4.00;;;7.00;99.90;;;;;;4955265;28;20042;-52
2022/04/29 05:21:16;;;;;;;10.38;3.72;;;7.00;99.90;;;;;;4972373;28;20054;-53
2022/04/29 05:23:42;;;;;;;10.68;4.00;;;7.10;99.90;;;;;;4954927;28;20041;-50
2022/04/29 05:26:07;;;;;;;11.18;3.40;;;7.20;99.90;;;;;;4972080;28;20042;-51
2022/04/29 05:28:34;;;;;;;12.00;4.38;;;7.20;99.90;;;;;;4972395;28;20050;-51
2022/04/29 05:31:00;;;;;;;10.02;4.45;;;7.20;99.90;;;;;;4971686;28;20473;-53
2022/04/29 05:33:26;;;;;;;8.32;4.22;;;7.30;99.90;;;;;;4972011;28;20046;-51
2022/04/29 05:35:52;;;;;;;7.13;3.78;;;7.30;99.90;;;;;;4971285;28;20039;-51
2022/04/29 05:38:18;;;;;;;9.60;4.07;;;7.30;99.90;;;;;;4972302;28;20123;-51
2022/04/29 05:43:28;;;;;;;7.88;3.65;;;7.40;99.90;;;;;;4972045;28;20057;-51
2022/04/29 05:45:54;;;;;;;8.45;3.67;;;7.40;99.90;;;;;;4971881;28;20578;-53
2022/04/29 05:48:20;;;;;;;7.50;3.83;;;7.40;99.90;;;;;;4971927;28;20070;-51
2022/04/29 05:50:46;;;;;;;10.82;4.22;;;7.50;99.90;;;;;;4971790;28;20085;-50
2022/04/29 05:53:12;;;;;;;8.82;3.85;;;7.50;99.90;;;;;;4971801;28;20038;-51
2022/04/29 05:55:38;;;;;;;8.18;3.47;;;7.50;99.90;;;;;;4971830;28;20550;-50
2022/04/29 05:58:04;;;;;;;8.27;3.85;;;7.50;99.90;;;;;;4954513;28;20054;-47
2022/04/29 06:00:30;;;;;;;9.90;4.55;;;7.50;99.90;;;;;;4971357;28;20480;-50
2022/04/29 06:02:56;;;;;;;7.65;3.50;;;7.60;99.90;;;;;;4971235;28;20457;-51
2022/04/29 06:05:22;;;;;;;8.13;3.42;;;7.60;99.90;;;;;;4954223;28;20035;-50
2022/04/29 06:07:48;;;;;;;9.57;3.90;;;7.70;99.90;;;;;;4971365;28;20507;-51
2022/04/29 06:10:14;;;;;;;11.32;3.55;;;7.80;99.90;;;;;;4971084;28;20388;-48
2022/04/29 06:12:41;;;;;;;9.20;3.75;;;7.80;99.90;;;;;;4971096;28;20046;-51
2022/04/29 06:15:12;;;;;;;9.63;4.07;;;7.80;99.90;;;;;;4971154;28;20087;-51
2022/04/29 06:17:37;;;;;;;11.57;4.28;;;7.90;99.90;;;;;;4971133;28;20419;-52
2022/04/29 06:20:04;;;;;;;8.07;3.40;;;7.90;99.90;;;;;;4953962;28;20502;-51
2022/04/29 06:22:29;;;;;;;10.15;4.07;;;7.90;99.90;;;;;;4971036;28;20078;-48
2022/04/29 06:24:56;;;;;;;8.48;3.80;;;7.90;99.90;;;;;;4971228;28;20066;-47
2022/04/29 06:27:22;;;;;;;7.75;3.72;;;8.00;99.90;;;;;;4971155;28;20041;-51
2022/04/29 06:29:47;;;;;;;12.20;4.47;;;8.00;99.90;;;;;;4970947;28;20225;-51
2022/04/29 06:32:13;;;;;;;10.93;3.78;;;8.10;99.90;;;;;;4953623;28;20050;-51
2022/04/29 06:34:39;;;;;;;8.57;3.67;;;8.10;99.90;;;;;;4970980;28;20054;-47
2022/04/29 06:37:06;;;;;;;13.10;4.25;;;8.20;99.90;;;;;;4970811;28;20500;-50
2022/04/29 06:39:32;;;;;;;8.40;3.63;;;8.20;99.90;;;;;;4971244;28;20496;-50
2022/04/29 06:41:57;;;;;;;9.25;3.78;;;8.20;99.90;;;;;;4971053;28;20035;-52
2022/04/29 06:44:23;;;;;;;8.40;3.38;;;8.30;99.90;;;;;;4971224;28;20473;-52
2022/04/29 06:46:50;;;;;;;9.95;3.88;;;8.30;99.90;;;;;;4971212;28;20049;-52
2022/04/29 06:49:17;;;;;;;7.10;3.58;;;8.30;99.90;;;;;;4974805;28;20272;-52
2022/04/29 06:51:42;;;;;;;10.93;3.78;;;8.40;99.90;;;;;;4957965;28;20495;-52
2022/04/29 06:54:08;;;;;;;8.98;4.10;;;8.40;99.90;;;;;;4975053;28;20252;-52
2022/04/29 06:56:34;;;;;;;8.27;3.33;;;8.40;99.90;;;;;;4958054;28;20077;-49
2022/04/29 06:58:59;;;;;;;9.32;3.80;;;8.40;99.90;;;;;;4975157;28;20122;-52
2022/04/29 07:01:25;;;;;;;6.15;3.35;;;8.50;99.90;;;;;;4974860;28;20035;-52
2022/04/29 07:03:51;;;;;;;9.63;4.45;;;8.60;99.90;;;;;;4975391;28;20479;-53
2022/04/29 07:06:17;;;;;;;12.57;3.97;;;8.70;99.90;;;;;;4974890;28;20062;-53
2022/04/29 07:08:43;;;;;;;10.82;3.83;;;8.70;99.90;;;;;;4975122;28;20038;-53
2022/04/29 07:11:09;;;;;;;8.15;4.13;;;8.80;99.90;;;;;;4974803;28;20053;-54
2022/04/29 07:13:34;;;;;;;8.43;4.03;;;8.80;99.90;;;;;;4957523;28;20514;-48
2022/04/29 07:16:00;;;;;;;8.60;3.97;;;8.80;99.90;;;;;;4957139;28;20046;-53
2022/04/29 07:18:26;;;;;;;8.45;4.28;;;8.90;99.90;;;;;;4957291;28;20055;-53
2022/04/29 07:20:51;;;;;;;10.10;4.15;;;8.90;99.90;;;;;;4957220;28;20118;-52
2022/04/29 07:23:17;;;;;;;7.85;4.28;;;9.00;99.90;;;;;;4974837;28;20066;-53
2022/04/29 07:25:43;;;;;;;6.20;3.75;;;9.00;99.90;;;;;;4974467;28;20046;-50
2022/04/29 07:28:08;;;;;;;8.95;3.95;;;9.10;99.90;;;;;;4957008;28;20432;-49
2022/04/29 07:30:34;;;;;;;6.93;3.30;;;9.10;99.90;;;;;;4974033;28;20253;-51
2022/04/29 07:32:59;;;;;;;6.65;3.10;;;9.20;99.90;;;;;;4956796;28;20316;-47
2022/04/29 07:43:38;;;;;;;6.18;3.10;;;9.50;99.90;;;;;;4974153;28;20066;-50
2022/04/29 07:46:05;;;;;;;7.57;3.53;;;9.50;99.90;;;;;;4974060;28;20038;-50
2022/04/29 07:48:31;;;;;;;8.55;3.35;;;9.60;99.90;;;;;;4974077;28;20411;-53
2022/04/29 07:50:58;;;;;;;5.38;2.70;;;9.70;99.90;;;;;;4974071;28;20130;-50
2022/04/29 07:53:23;;;;;;;7.07;3.17;;;9.80;99.90;;;;;;4956500;28;20459;-51
2022/04/29 07:55:49;;;;;;;6.25;2.80;;;10.00;99.90;;;;;;4973751;28;20154;-50
2022/04/29 07:58:15;;;;;;;7.65;2.70;;;10.10;99.90;;;;;;4973442;28;20268;-47
2022/04/29 08:00:41;;;;;;;10.63;3.20;;;10.30;99.30;;;;;;4973191;28;20045;-51
2022/04/29 08:03:07;;;;;;;5.07;2.45;;;10.40;98.70;;;;;;4956213;28;20047;-47
2022/04/29 08:05:33;;;;;;;5.78;2.47;;;10.50;98.30;;;;;;4956315;28;20086;-50
2022/04/29 08:08:01;;;;;;;5.15;2.65;;;10.70;97.80;;;;;;4973437;28;20054;-51
2022/04/29 08:10:32;;;;;;;4.82;2.58;;;10.90;97.30;;;;;;4956289;28;20054;-52
2022/04/29 08:13:03;;;;;;;4.47;2.55;;;11.10;96.50;;;;;;4973668;28;20445;-50
2022/04/29 08:15:30;;;;;;;6.05;2.20;;;11.20;95.60;;;;;;4956530;28;20109;-52
2022/04/29 08:17:57;;;;;;;5.85;2.15;;;11.50;95.50;;;;;;4973622;28;20035;-52
2022/04/29 08:20:23;;;;;;;6.50;2.63;;;11.80;94.90;;;;;;4973670;28;20074;-51
2022/04/29 08:22:49;;;;;;;6.32;2.55;;;12.00;94.00;;;;;;4973372;28;20166;-52
2022/04/29 08:25:17;;;;;;;6.78;2.22;;;12.20;92.10;;;;;;4956069;28;20513;-48
2022/04/29 08:27:43;;;;;;;5.85;2.33;;;12.10;91.50;;;;;;4973445;28;20042;-52
2022/04/29 08:30:09;;;;;;;3.25;1.98;;;12.00;91.80;;;;;;4972922;28;20054;-48
2022/04/29 08:32:43;;;;;;;6.05;2.60;;;11.90;91.10;;;;;;4972980;28;20055;-49
2022/04/29 08:35:10;;;;;;;4.30;2.30;;;11.90;90.60;;;;;;4972694;28;20434;-52
2022/04/29 08:37:40;;;;;;;6.78;2.30;;;11.90;91.10;;;;;;4939877;28;20123;-50
2022/04/29 08:40:07;;;;;;;3.78;2.08;;;12.00;91.20;;;;;;4973319;28;20043;-52
2022/04/29 08:42:37;;;;;;;7.50;2.08;;;12.10;90.60;;;;;;4973552;28;20047;-51
2022/04/29 08:45:13;;;;;;;5.20;2.13;;;12.20;89.90;;;;;;4972909;28;20162;-53
2022/04/29 08:47:42;;;;;;;5.40;1.75;;;12.30;88.70;;;;;;4973157;28;20039;-52
2022/04/29 08:50:11;;;;;;;4.90;1.92;;;12.40;87.70;;;;;;4973457;28;20495;-52
2022/04/29 08:52:37;;;;;;;4.55;2.17;;;12.40;87.00;;;;;;4955619;28;20064;-51
2022/04/29 09:00:41;;;;;;;4.55;2.33;;;13.00;83.90;;;;;;4972374;28;20484;-52
2022/04/29 09:03:18;;;;;;;4.38;1.95;;;13.20;82.00;;;;;;4972991;28;20393;-53
2022/04/29 09:05:45;;;;;;;4.03;1.67;;;13.30;80.50;;;;;;4972763;28;20042;-53
2022/04/29 09:08:19;;;;;;;4.32;2.15;;;13.30;79.70;;;;;;4972792;28;20047;-51
2022/04/29 09:10:52;;;;;;;4.80;1.85;;;13.30;76.70;;;;;;4971785;28;20496;-52
2022/04/29 09:13:18;;;;;;;;;;;13.30;74.70;;;;;;4973187;28;20042;-53
2022/04/29 09:16:05;;;;;;;5.07;2.03;;;13.30;71.80;;;;;;4972367;28;19918;-52
2022/04/29 09:18:37;;;;;;;6.25;1.70;;;13.50;74.30;;;;;;4955079;28;20050;-49
2022/04/29 09:21:10;;;;;;;6.10;2.00;;;13.50;73.80;;;;;;4972471;28;20520;-52
2022/04/29 09:23:38;;;;;;;3.60;1.85;;;13.50;71.30;;;;;;4955193;28;20519;-49
2022/04/29 09:26:05;;;;;;;9.77;2.10;;;13.40;74.40;;;;;;4972488;28;20499;-51
2022/04/29 09:28:35;;;;;;;4.88;2.13;;;13.20;73.50;;;;;;4972699;28;20043;-51
2022/04/29 09:31:02;;;;;;;6.43;2.15;;;13.10;71.70;;;;;;4972263;28;20090;-52
2022/04/29 09:33:30;;;;;;;5.10;2.30;;;12.90;73.10;;;;;;4972143;28;20057;-52
2022/04/29 09:35:56;;;;;;;4.88;1.95;;;12.70;73.20;;;;;;4972059;28;20054;-48
2022/04/29 09:41:07;;;;;;;4.72;2.20;;;12.60;75.00;;;;;;4971889;28;20046;-53
2022/04/29 09:43:38;;;;;;;4.90;2.30;;;12.50;75.10;;;;;;4972150;28;20540;-52
2022/04/29 09:46:16;;;;;;;7.78;2.38;;;12.30;74.60;;;;;;4971640;28;20225;-51
2022/04/29 09:49:10;;;;;;;6.40;2.47;;;12.30;75.20;;;;;;4971914;28;20043;-52
2022/04/29 09:51:51;;;;;;;5.35;2.08;;;12.30;75.30;;;;;;4971786;28;20050;-49
2022/04/29 09:54:19;;;;;;;4.40;1.80;;;12.30;75.40;;;;;;4970961;28;20050;-52
2022/04/29 09:57:15;;;;;;;8.75;2.28;;;12.30;76.80;;;;;;4954199;28;20050;-52
2022/04/29 09:59:54;;;;;;;3.60;1.67;;;12.40;75.20;;;;;;4971605;28;20632;-52
2022/04/29 10:02:22;;;;;;;3.42;2.10;;;12.40;76.50;;;;;;4971659;28;20039;-53
2022/04/29 10:04:49;;;;;;;5.65;1.90;;;12.40;76.30;;;;;;4971719;28;20496;-52
2022/04/29 10:07:19;;;;;;;5.57;2.38;;;12.50;75.80;;;;;;4971971;28;20117;-52
2022/04/29 10:09:47;;;;;;;7.13;2.40;;;12.50;75.30;;;;;;4971648;28;20562;-52
2022/04/29 10:12:16;;;;;;;5.88;2.00;;;12.50;74.90;;;;;;4971526;28;20496;-52
2022/04/29 10:14:43;;;;;;;5.97;2.17;;;12.50;74.30;;;;;;4971442;28;20054;-50
2022/04/29 10:22:51;;;;;;;6.25;2.42;;;12.60;73.50;;;;;;4971046;28;20051;-53
2022/04/29 10:25:22;;;;;;;7.68;2.05;;;12.70;73.30;;;;;;4971213;28;20062;-51
2022/04/29 10:27:52;;;;;;;4.57;2.03;;;12.80;74.30;;;;;;4971382;28;20046;-51
2022/04/29 10:30:31;;;;;;;7.82;2.20;;;12.90;73.00;;;;;;4970744;28;20523;-53
2022/04/29 10:33:04;;;;;;;3.70;2.42;;;13.00;73.30;;;;;;4971544;28;20054;-52
2022/04/29 10:38:32;;;;;;;4.53;2.50;;;13.30;70.50;;;;;;4971595;28;20050;-52
2022/04/29 10:41:12;;;;;;;5.40;2.00;;;13.20;65.70;;;;;;4953865;28;20089;-51
2022/04/29 10:43:39;;;;;;;5.50;2.40;;;13.30;67.50;;;;;;4971386;28;20047;-51
2022/04/29 10:46:05;;;;;;;7.13;2.25;;;13.30;69.70;;;;;;4971163;28;20034;-52
2022/04/29 10:48:35;;;;;;;4.28;2.00;;;13.40;68.80;;;;;;4954073;28;20377;-52
2022/04/29 10:51:18;;;;;;;5.28;2.03;;;13.40;68.40;;;;;;4971048;28;20042;-48
2022/04/29 10:53:51;;;;;;;;;;;13.50;67.00;;;;;;4954368;28;20074;-53
2022/04/29 10:56:29;;;;;;;6.90;2.20;;;13.50;64.00;;;;;;4970877;28;19945;-46
2022/04/29 10:59:04;;;;;;;5.40;1.95;;;13.50;67.50;;;;;;4971247;28;20449;-53
2022/04/29 11:01:34;;;;;;;4.47;1.90;;;13.50;64.40;;;;;;4970779;28;20451;-52
2022/04/29 11:04:27;;;;;;;4.07;1.40;;;13.50;65.70;;;;;;4971282;28;20043;-51
2022/04/29 11:06:53;;;;;;;5.53;1.70;;;13.60;67.00;;;;;;4971241;28;20502;-52
2022/04/29 11:09:29;;;;;;;5.68;1.70;;;13.70;65.80;;;;;;4970935;28;20129;-52
2022/04/29 11:12:02;;;;;;;4.35;1.83;;;13.80;65.70;;;;;;4953812;28;20094;-52
2022/04/29 11:14:29;;;;;;;5.40;1.90;;;13.80;64.90;;;;;;4970678;28;20046;-53
2022/04/29 11:17:14;;;;;;;6.90;1.85;;;13.80;65.00;;;;;;4971024;28;20468;-52
2022/04/29 11:19:45;;;;;;;4.40;1.80;;;13.90;64.70;;;;;;4953523;28;20500;-51
2022/04/29 11:25:04;;;;;;;;;;;14.00;64.30;;;;;;4971296;28;20528;-52
2022/04/29 11:27:36;;;;;;;7.15;1.73;;;13.90;62.10;;;;;;4970913;28;20056;-52
2022/04/29 11:30:03;;;;;;;3.45;1.70;;;13.90;64.50;;;;;;4970178;28;20459;-52
2022/04/29 11:32:30;;;;;;;5.15;1.98;;;13.90;65.50;;;;;;4970829;28;20130;-52
2022/04/29 11:35:00;;;;;;;3.33;1.63;;;13.90;65.20;;;;;;4955697;28;20047;-52
2022/04/29 11:37:33;;;;;;;3.70;1.55;;;13.90;65.00;;;;;;4974894;28;20043;-53
2022/04/29 11:40:07;;;;;;;7.18;1.85;;;13.90;63.40;;;;;;4974065;28;20145;-52
2022/04/29 11:42:34;;;;;;;3.20;1.50;;;13.90;63.60;;;;;;4957456;28;20064;-53
2022/04/29 11:45:23;;;;;;;3.95;1.30;;;13.90;63.10;;;;;;4973974;28;20093;-52
2022/04/29 11:47:49;;;;;;;4.15;1.45;;;13.90;62.60;;;;;;4964334;28;20047;-52
2022/04/29 11:50:15;;;;;;;5.00;1.45;;;14.00;63.80;;;;;;4973964;28;20041;-53
2022/04/29 11:52:41;;;;;;;3.45;1.50;;;14.00;62.40;;;;;;4974261;28;20411;-53
2022/04/29 11:55:13;;;;;;;4.55;1.70;;;14.00;62.90;;;;;;4973715;28;20038;-50
2022/04/29 11:57:49;;;;;;;6.13;1.60;;;14.00;62.00;;;;;;4974009;28;20515;-52
2022/04/29 12:00:22;;;;;;;5.13;1.60;;;14.00;62.10;;;;;;4956296;28;20043;-52
2022/04/29 12:02:50;;;;;;;2.78;1.35;;;14.00;62.20;;;;;;4956790;28;20050;-53
2022/04/29 12:05:16;;;;;;;7.05;1.80;;;14.00;63.20;;;;;;4973767;28;20495;-49
2022/04/29 12:07:43;;;;;;;5.18;1.60;;;14.00;63.40;;;;;;4940576;28;20058;-53
2022/04/29 12:10:31;;;;;;;6.30;1.70;;;14.00;63.10;;;;;;4973708;28;20042;-53
2022/04/29 12:12:59;;;;;;;5.93;1.80;;;14.10;62.10;;;;;;4973972;28;20125;-52
2022/04/29 12:15:27;;;;;;;3.58;1.52;;;14.00;63.40;;;;;;4973612;28;20428;-52
2022/04/29 12:17:58;;;;;;;4.38;1.67;;;14.00;63.30;;;;;;4974086;28;20043;-50
2022/04/29 12:20:25;;;;;;;3.10;1.67;;;13.90;64.00;;;;;;4973545;28;20452;-52
2022/04/29 12:22:52;;;;;;;3.33;1.80;;;13.90;65.10;;;;;;4973460;28;20066;-52
2022/04/29 12:25:29;;;;;;;4.18;2.03;;;14.00;64.20;;;;;;4973710;28;20050;-52
2022/04/29 12:28:19;;;;;;;4.25;1.63;;;14.10;64.60;;;;;;4973749;28;20352;-51
2022/04/29 12:36:58;;;;;;;3.95;2.00;;;13.80;65.10;;;;;;4973069;28;20054;-52
2022/04/29 12:39:26;;;;;;;3.90;1.80;;;13.60;65.20;;;;;;4973340;28;20200;-52
2022/04/29 12:42:03;;;;;;;6.70;1.80;;;13.50;65.30;;;;;;4973287;28;20035;-53
2022/04/29 12:45:05;;;;;;;2.47;1.80;;;13.50;65.50;;;;;;4973184;28;20123;-52
2022/04/29 12:47:38;;;;;;;4.60;2.20;;;13.50;66.70;;;;;;4963037;28;20043;-52
2022/04/29 12:50:26;;;;;;;4.05;2.30;;;13.40;66.60;;;;;;4973120;28;20045;-52
2022/04/29 12:53:08;;;;;;;5.55;2.33;;;13.40;67.00;;;;;;4973273;28;20047;-49
2022/04/29 12:55:44;;;;;;;6.72;2.33;;;13.30;67.50;;;;;;4973258;28;20076;-53
2022/04/29 12:58:18;;;;;;;4.40;2.53;;;13.40;66.80;;;;;;4973008;28;20041;-52
2022/04/29 13:00:56;;;;;;;5.72;2.40;;;13.30;67.10;;;;;;4972586;28;20041;-50
2022/04/29 13:03:23;;;;;;;6.40;2.05;;;13.20;67.10;;;;;;4970588;28;20455;-49
2022/04/29 13:05:49;;;;;;;5.15;2.22;;;13.20;67.10;;;;;;4953162;28;20061;-45
2022/04/29 13:08:15;;;;;;;4.95;2.50;;;13.30;66.70;;;;;;4970490;28;20030;-52
2022/04/29 13:10:43;;;;;;;4.88;2.50;;;13.30;66.10;;;;;;4971141;28;20078;-48
2022/04/29 13:13:08;;;;;;;5.72;2.22;;;13.30;66.90;;;;;;4966370;28;20034;-49
2022/04/29 13:15:34;;;;;;;8.88;2.60;;;13.40;67.60;;;;;;4954447;28;20059;-51
2022/04/29 13:18:00;;;;;;;5.55;2.83;;;13.40;67.30;;;;;;4970118;28;20039;-53
2022/04/29 13:20:26;;;;;;;5.57;2.70;;;13.40;67.80;;;;;;4953124;28;20467;-50
2022/04/29 13:22:53;;;;;;;5.97;2.70;;;13.50;66.70;;;;;;4969964;28;20045;-50
2022/04/29 13:25:19;;;;;;;4.40;2.60;;;13.50;66.20;;;;;;4968855;28;20062;-52
2022/04/29 13:27:45;;;;;;;4.40;2.42;;;13.50;66.30;;;;;;4971634;28;20051;-52
2022/04/29 13:30:11;;;;;;;8.52;2.80;;;13.70;66.20;;;;;;4971478;28;20066;-53
2022/04/29 13:32:38;;;;;;;5.20;2.45;;;13.80;65.60;;;;;;4972215;28;20074;-52
2022/04/29 13:35:04;;;;;;;6.60;2.50;;;14.00;64.20;;;;;;4972093;28;20042;-53
2022/04/29 13:37:32;;;;;;;6.50;3.25;;;14.00;62.40;;;;;;4972025;28;20451;-53